ADDS TAF Board (Experimental) INFO

IDs: Format: Expanded Condensed

Updated at: 1527 UTC 16 Sep 2014

KLAX - Los Angeles Intl, CA, US

Issued at 1458 UTC 16 Sep 2014
Time1453Z16/16Z16/17Z16/18Z16/19Z16/20Z16/21Z16/22Z16/23Z17/00Z17/01Z17/02Z17/03Z17/04Z
TypeOBSPRVLPRVLPRVLPRVLPRVLPRVLPRVLPRVLPRVLPRVLPRVLPRVLPRVL
VIS10>6>6>6>6>6>6>6>6>6>6>6>6>6
CIG----------------------------
CoverSCTSCTSCTSKCSKCSKCSKCSKCSKCSKCSKCSKCSKCSKC
FltCat--VFRVFRVFRVFRVFRVFRVFRVFRVFRVFRVFRVFRVFR
WX----------------------------
WDir260VRBVRB270270270270270270270270270270270
WSpd45588815151515151588
WGst----------------------------
R06/24
XWnd-0VRBVRB11122222211
HWnd-4VRBVRB-8-8-8-15-15-15-15-15-15-8-8
R07/25
XWnd-0VRBVRB11122222211
HWnd-4VRBVRB-8-8-8-15-15-15-15-15-15-8-8
Raw TAF
KLAX 161458Z 1615/1718 VRB05KT P6SM FEW010 SCT100
  FM161800 27008KT P6SM SKC
  FM162100 27015KT P6SM SKC
  FM170300 27008KT P6SM SKC
  FM170700 VRB03KT P6SM SKC
  FM171700 27008KT P6SM SKC


Raw METAR
KLAX 161453Z 26004KT 10SM FEW012 SCT100 24/18 A2978 RMK AO2 SLP080 FU FEW012 T02390183 53006

TAF Board Legend

Hazard VFR MVFR IFR LIFR
Visibility (sm) >5 3≤X≤5 1≤X<3 <1
Ceiling (100 ft) >30 10≤X≤30 5≤X<10 <5
Wind Speed (kt) <10 10≤X<20 20≤X<30 ≥30
Wind Gust (kt) <15 15≤X<25 25≤X<35 ≥35
Weather No Wx Reported VCTS,-TS,-FZRA TS,FZRA +TS,+FZRA


Page loaded:  15:27 UTC  |   08:27 AM Pacific  |   09:27 AM Mountain  |   10:27 AM Central  |   11:27 AM Eastern

 

ADVISORIES

FORECASTS

FORECASTS

OBSERVATIONS

USER TOOLS

ABOUT US